Time;durP1;ratioP1;P1;durP2;ratioP2;P2;SDS_P1;SDS_P2;PMS_P1;PMS_P2;Temp;Humidity;BMP_temperature;BMP_pressure;BME280_temperature;BME280_humidity;BME280_pressure;Samples;Min_cycle;Max_cycle;Signal;HPM_P1;HPM_P2
2022/09/19 00:01:58;;;;;;;3.90;1.27;;;;;;;;;;5095162;28;20044;-48
2022/09/19 00:04:30;;;;;;;3.60;1.00;;;;;;;;;;5093233;28;20067;-49
2022/09/19 00:07:00;;;;;;;2.63;1.08;;;;;;;;;;5094741;28;20072;-47
2022/09/19 00:09:32;;;;;;;4.35;1.02;;;;;;;;;;5095031;28;20055;-46
2022/09/19 00:12:02;;;;;;;1.45;0.80;;;;;;;;;;5095252;28;20048;-50
2022/09/19 00:14:31;;;;;;;5.88;1.33;;;;;;;;;;5094769;28;20044;-47
2022/09/19 00:17:08;;;;;;;3.55;0.90;;;;;;;;;;5094945;28;20050;-47
2022/09/19 00:19:38;;;;;;;3.28;1.20;;;;;;;;;;5094882;28;20044;-49
2022/09/19 00:22:09;;;;;;;4.70;0.90;;;;;;;;;;5094535;28;20063;-46
2022/09/19 00:24:49;;;;;;;3.30;1.00;;;;;;;;;;5094957;28;20051;-48
2022/09/19 00:27:27;;;;;;;6.05;1.40;;;;;;;;;;5094516;28;20147;-47
2022/09/19 00:29:58;;;;;;;3.33;1.35;;;;;;;;;;5094588;28;20044;-50
2022/09/19 00:32:28;;;;;;;1.40;0.73;;;;;;;;;;5094868;28;20066;-48
2022/09/19 00:35:05;;;;;;;3.28;0.98;;;;;;;;;;5093371;28;20124;-46
2022/09/19 00:37:33;;;;;;;3.03;1.10;;;;;;;;;;5086260;28;20039;-48
2022/09/19 00:40:03;;;;;;;2.72;0.90;;;;;;;;;;5080386;28;20063;-47
2022/09/19 00:42:33;;;;;;;3.35;1.33;;;;;;;;;;5094415;28;20090;-49
2022/09/19 00:45:02;;;;;;;3.05;1.35;;;;;;;;;;5093831;28;20048;-46
2022/09/19 00:47:37;;;;;;;4.47;1.05;;;;;;;;;;5080216;28;20036;-47
2022/09/19 00:50:22;;;;;;;4.22;1.33;;;;;;;;;;5094661;28;20060;-47
2022/09/19 00:53:08;;;;;;;3.95;1.33;;;;;;;;;;5091895;28;20090;-48
2022/09/19 00:55:36;;;;;;;1.92;1.20;;;;;;;;;;5094216;28;20087;-47
2022/09/19 00:58:08;;;;;;;4.53;1.33;;;;;;;;;;5094022;28;20380;-49
2022/09/19 01:00:35;;;;;;;2.03;1.05;;;;;;;;;;5093803;28;20452;-46
2022/09/19 01:03:06;;;;;;;3.03;1.17;;;;;;;;;;5093886;28;20056;-47
2022/09/19 01:05:37;;;;;;;2.75;1.20;;;;;;;;;;5093855;28;20129;-47
2022/09/19 01:08:23;;;;;;;3.30;1.20;;;;;;;;;;5081611;28;20060;-46
2022/09/19 01:11:11;;;;;;;2.65;0.90;;;;;;;;;;5093097;28;20149;-51
2022/09/19 01:13:43;;;;;;;4.45;1.15;;;;;;;;;;5094230;28;20075;-51
2022/09/19 01:16:18;;;;;;;3.38;0.98;;;;;;;;;;5093181;28;20055;-51
2022/09/19 01:18:47;;;;;;;4.43;1.75;;;;;;;;;;5094166;28;20047;-49
2022/09/19 01:24:22;;;;;;;4.85;1.40;;;;;;;;;;5093604;28;20067;-52
2022/09/19 01:27:06;;;;;;;2.93;1.13;;;;;;;;;;5081358;28;20047;-49
2022/09/19 01:29:46;;;;;;;2.83;1.13;;;;;;;;;;5080983;28;20048;-50
2022/09/19 01:32:18;;;;;;;3.85;0.90;;;;;;;;;;5083111;28;20052;-48
2022/09/19 01:34:51;;;;;;;2.97;1.20;;;;;;;;;;5087181;28;20043;-48
2022/09/19 01:37:29;;;;;;;3.00;1.27;;;;;;;;;;5087725;28;20041;-49
2022/09/19 01:40:00;;;;;;;4.63;0.88;;;;;;;;;;5082399;28;20476;-48
2022/09/19 01:42:30;;;;;;;3.65;1.02;;;;;;;;;;5085933;28;20051;-48
2022/09/19 01:45:00;;;;;;;2.05;0.70;;;;;;;;;;5092263;28;20079;-51
2022/09/19 01:47:31;;;;;;;2.95;0.77;;;;;;;;;;5093046;28;20050;-51
2022/09/19 01:50:08;;;;;;;2.63;0.90;;;;;;;;;;5093167;28;20372;-51
2022/09/19 01:52:46;;;;;;;4.05;1.02;;;;;;;;;;5083831;28;20053;-49
2022/09/19 01:55:18;;;;;;;2.17;1.52;;;;;;;;;;5089288;28;20131;-49
2022/09/19 01:57:52;;;;;;;2.65;0.98;;;;;;;;;;5081743;28;20048;-50
2022/09/19 02:00:23;;;;;;;1.75;0.88;;;;;;;;;;5093136;28;20184;-49
2022/09/19 02:02:57;;;;;;;3.53;1.10;;;;;;;;;;5091537;28;20110;-47
2022/09/19 02:05:31;;;;;;;3.57;1.07;;;;;;;;;;5092491;28;20062;-48
2022/09/19 02:08:09;;;;;;;3.63;1.20;;;;;;;;;;5091156;28;20476;-51
2022/09/19 02:10:40;;;;;;;5.57;1.30;;;;;;;;;;5085270;28;20485;-51
2022/09/19 02:13:10;;;;;;;2.50;1.30;;;;;;;;;;5092732;28;20429;-50
2022/09/19 02:15:46;;;;;;;2.63;1.10;;;;;;;;;;5092534;28;20059;-48
2022/09/19 02:18:24;;;;;;;2.53;0.80;;;;;;;;;;5072705;28;20121;-48
2022/09/19 02:20:55;;;;;;;3.65;1.10;;;;;;;;;;5072648;28;20495;-48
2022/09/19 02:23:25;;;;;;;4.63;1.00;;;;;;;;;;5069285;28;20048;-47
2022/09/19 02:25:54;;;;;;;3.38;0.93;;;;;;;;;;5072377;28;20056;-48
2022/09/19 02:28:31;;;;;;;1.98;0.90;;;;;;;;;;5072393;28;20049;-49
2022/09/19 02:31:01;;;;;;;3.20;0.98;;;;;;;;;;5072490;28;20067;-49
2022/09/19 02:33:34;;;;;;;4.85;0.98;;;;;;;;;;5070111;28;20041;-51
2022/09/19 02:36:09;;;;;;;3.65;1.27;;;;;;;;;;5072261;28;20053;-50
2022/09/19 02:38:38;;;;;;;3.97;1.23;;;;;;;;;;5072392;28;20052;-47
2022/09/19 02:41:16;;;;;;;2.42;1.10;;;;;;;;;;5072207;28;20063;-48
2022/09/19 02:43:46;;;;;;;3.28;1.02;;;;;;;;;;5072368;28;20044;-48
2022/09/19 02:46:17;;;;;;;2.38;0.90;;;;;;;;;;5072002;28;20523;-47
2022/09/19 02:48:56;;;;;;;3.60;1.02;;;;;;;;;;5072267;28;20052;-48
2022/09/19 02:51:34;;;;;;;1.30;0.60;;;;;;;;;;5072080;28;20485;-48
2022/09/19 02:54:10;;;;;;;2.28;1.05;;;;;;;;;;5072451;28;20049;-51
2022/09/19 02:56:38;;;;;;;4.13;1.00;;;;;;;;;;5071896;28;20044;-47
2022/09/19 02:59:09;;;;;;;3.30;1.10;;;;;;;;;;5071829;28;20505;-47
2022/09/19 03:01:40;;;;;;;1.25;0.68;;;;;;;;;;5071815;28;20064;-48
2022/09/19 03:04:16;;;;;;;1.67;0.80;;;;;;;;;;5072402;28;20049;-47
2022/09/19 03:06:47;;;;;;;2.40;1.00;;;;;;;;;;5067953;28;20127;-52
2022/09/19 03:09:20;;;;;;;1.85;0.90;;;;;;;;;;5072131;28;20060;-48
2022/09/19 03:11:51;;;;;;;2.33;0.68;;;;;;;;;;5071928;28;20060;-49
2022/09/19 03:14:19;;;;;;;3.22;1.10;;;;;;;;;;5072336;28;20139;-48
2022/09/19 03:16:57;;;;;;;1.55;0.65;;;;;;;;;;5083078;28;20749;-48
2022/09/19 03:19:25;;;;;;;3.95;1.00;;;;;;;;;;5095915;28;20369;-48
2022/09/19 03:21:56;;;;;;;3.38;1.20;;;;;;;;;;5095930;28;20457;-47
2022/09/19 03:24:24;;;;;;;1.55;0.60;;;;;;;;;;5096221;28;20048;-52
2022/09/19 03:26:51;;;;;;;1.10;0.52;;;;;;;;;;5094312;28;20483;-47
2022/09/19 03:29:21;;;;;;;1.77;0.73;;;;;;;;;;5088651;28;20044;-47
2022/09/19 03:31:55;;;;;;;1.75;0.70;;;;;;;;;;5096002;28;20056;-49
2022/09/19 03:34:23;;;;;;;1.40;0.80;;;;;;;;;;5091120;28;20048;-48
2022/09/19 03:36:52;;;;;;;1.45;0.60;;;;;;;;;;5095260;28;20104;-47
2022/09/19 03:39:19;;;;;;;1.27;0.70;;;;;;;;;;5095576;28;20052;-50
2022/09/19 03:41:46;;;;;;;1.00;0.60;;;;;;;;;;5093668;28;20482;-48
2022/09/19 03:44:14;;;;;;;0.80;0.40;;;;;;;;;;5095354;28;20174;-48
2022/09/19 03:46:46;;;;;;;1.63;0.88;;;;;;;;;;5095364;28;20455;-48
2022/09/19 03:49:23;;;;;;;2.67;0.77;;;;;;;;;;5095178;28;20437;-49
2022/09/19 03:51:49;;;;;;;2.00;0.70;;;;;;;;;;5094585;28;20056;-51
2022/09/19 03:54:15;;;;;;;3.03;0.70;;;;;;;;;;5095171;28;20056;-48
2022/09/19 03:56:45;;;;;;;0.95;0.52;;;;;;;;;;5094550;28;20048;-51
2022/09/19 03:59:16;;;;;;;3.45;0.70;;;;;;;;;;5094745;28;20087;-48
2022/09/19 04:01:44;;;;;;;1.90;0.60;;;;;;;;;;5094945;28;20052;-48
2022/09/19 04:04:15;;;;;;;0.40;0.40;;;;;;;;;;5095298;28;20048;-47
2022/09/19 04:06:50;;;;;;;2.58;0.70;;;;;;;;;;5095032;28;20044;-49
2022/09/19 04:09:19;;;;;;;1.40;0.50;;;;;;;;;;5095141;28;20051;-47
2022/09/19 04:11:49;;;;;;;0.85;0.50;;;;;;;;;;5094072;28;20457;-46
2022/09/19 04:14:18;;;;;;;1.33;0.60;;;;;;;;;;5094696;28;20048;-45
2022/09/19 04:16:44;;;;;;;1.45;0.80;;;;;;;;;;5094723;28;20055;-45
2022/09/19 04:19:12;;;;;;;1.67;0.50;;;;;;;;;;5093489;28;20461;-47
2022/09/19 04:21:41;;;;;;;1.00;0.50;;;;;;;;;;5093419;28;20044;-45
2022/09/19 04:24:14;;;;;;;1.08;0.40;;;;;;;;;;5092934;28;20048;-47
2022/09/19 04:26:43;;;;;;;1.80;0.70;;;;;;;;;;5094846;28;20048;-53
2022/09/19 04:29:13;;;;;;;3.45;0.43;;;;;;;;;;5090101;28;20496;-50
2022/09/19 04:31:39;;;;;;;2.58;0.45;;;;;;;;;;5080728;28;20128;-50
2022/09/19 04:34:06;;;;;;;1.30;0.63;;;;;;;;;;5093668;28;20071;-51
2022/09/19 04:36:36;;;;;;;1.67;0.70;;;;;;;;;;5090271;28;20067;-54
2022/09/19 04:39:06;;;;;;;1.08;0.50;;;;;;;;;;5094323;28;20346;-50
2022/09/19 04:41:46;;;;;;;1.45;0.60;;;;;;;;;;5085646;28;20041;-54
2022/09/19 04:44:13;;;;;;;0.93;0.50;;;;;;;;;;5094392;28;20071;-50
2022/09/19 04:46:42;;;;;;;1.52;0.70;;;;;;;;;;5094278;28;20052;-52
2022/09/19 04:49:11;;;;;;;2.25;0.70;;;;;;;;;;5094564;28;20044;-50
2022/09/19 04:51:40;;;;;;;2.25;0.60;;;;;;;;;;5094030;28;20438;-50
2022/09/19 04:54:09;;;;;;;2.15;0.75;;;;;;;;;;5094119;28;20048;-50
2022/09/19 04:56:46;;;;;;;2.05;0.70;;;;;;;;;;5094275;28;20044;-52
2022/09/19 04:59:14;;;;;;;1.30;0.50;;;;;;;;;;5093954;28;20048;-52
2022/09/19 05:01:42;;;;;;;1.98;0.60;;;;;;;;;;5093934;28;20101;-50
2022/09/19 05:04:16;;;;;;;1.75;0.60;;;;;;;;;;5093906;28;20077;-50
2022/09/19 05:06:44;;;;;;;1.02;0.50;;;;;;;;;;5085546;28;20056;-53
2022/09/19 05:09:14;;;;;;;1.30;0.52;;;;;;;;;;5093314;28;20051;-50
2022/09/19 05:11:56;;;;;;;2.08;0.45;;;;;;;;;;5093350;28;20472;-50
2022/09/19 05:14:23;;;;;;;1.35;0.50;;;;;;;;;;5094035;28;20051;-50
2022/09/19 05:16:51;;;;;;;0.77;0.40;;;;;;;;;;5082639;28;20087;-50
2022/09/19 05:19:21;;;;;;;1.92;0.43;;;;;;;;;;5091565;28;20044;-50
2022/09/19 05:21:50;;;;;;;0.88;0.50;;;;;;;;;;5090235;28;20056;-50
2022/09/19 05:24:27;;;;;;;1.85;0.60;;;;;;;;;;5088820;28;20078;-49
2022/09/19 05:27:11;;;;;;;0.85;0.47;;;;;;;;;;5093533;28;20143;-50
2022/09/19 05:29:39;;;;;;;0.98;0.40;;;;;;;;;;5083733;28;20484;-50
2022/09/19 05:32:05;;;;;;;0.82;0.43;;;;;;;;;;5093646;28;20079;-49
2022/09/19 05:34:36;;;;;;;0.60;0.40;;;;;;;;;;5093911;28;20059;-53
2022/09/19 05:37:05;;;;;;;1.63;0.60;;;;;;;;;;5092788;28;20040;-54
2022/09/19 05:39:31;;;;;;;1.23;0.40;;;;;;;;;;5091188;28;20084;-53
2022/09/19 05:42:02;;;;;;;1.40;0.50;;;;;;;;;;5090311;28;20605;-51
2022/09/19 05:44:29;;;;;;;2.38;0.57;;;;;;;;;;5080734;28;20076;-54
2022/09/19 05:46:59;;;;;;;0.73;0.40;;;;;;;;;;5093604;28;20105;-53
2022/09/19 05:49:30;;;;;;;1.17;0.55;;;;;;;;;;5093273;28;20048;-51
2022/09/19 05:53:51;;;;;;;1.50;0.35;;;;;;;;;;5093325;28;20131;-50
2022/09/19 05:54:42;;;;;;;1.80;0.55;;;;;;;;;;5081185;28;20499;-52
2022/09/19 05:57:16;;;;;;;0.75;0.40;;;;;;;;;;5093255;28;20048;-50
2022/09/19 05:59:43;;;;;;;0.65;0.43;;;;;;;;;;5093177;28;20102;-50
2022/09/19 06:02:13;;;;;;;1.20;0.50;;;;;;;;;;5093243;28;20051;-52
2022/09/19 06:04:41;;;;;;;2.25;0.60;;;;;;;;;;5091234;28;20075;-51
2022/09/19 06:07:10;;;;;;;1.75;0.55;;;;;;;;;;5091306;28;20060;-49
2022/09/19 06:09:38;;;;;;;0.77;0.50;;;;;;;;;;5092786;28;20052;-50
2022/09/19 06:12:06;;;;;;;2.05;0.50;;;;;;;;;;5092770;28;20385;-53
2022/09/19 06:14:38;;;;;;;2.17;0.65;;;;;;;;;;5092366;28;20410;-53
2022/09/19 06:17:06;;;;;;;1.10;0.60;;;;;;;;;;5092301;28;20440;-52
2022/09/19 06:19:36;;;;;;;0.77;0.50;;;;;;;;;;5092581;28;20043;-51
2022/09/19 06:22:06;;;;;;;1.52;0.60;;;;;;;;;;5093057;28;20044;-53
2022/09/19 06:24:35;;;;;;;2.70;0.95;;;;;;;;;;5092283;28;20047;-52
2022/09/19 06:27:03;;;;;;;1.67;0.70;;;;;;;;;;5092225;28;20500;-52
2022/09/19 06:29:32;;;;;;;1.50;0.70;;;;;;;;;;5092416;28;20048;-48
2022/09/19 06:32:09;;;;;;;1.15;0.60;;;;;;;;;;5092583;28;20464;-49
2022/09/19 06:34:39;;;;;;;2.83;0.82;;;;;;;;;;5092159;28;20562;-48
2022/09/19 06:37:10;;;;;;;2.83;0.73;;;;;;;;;;5092693;28;20052;-50
2022/09/19 06:39:39;;;;;;;4.13;1.10;;;;;;;;;;5089948;28;20084;-51
2022/09/19 06:42:09;;;;;;;1.55;0.50;;;;;;;;;;5081471;28;20083;-52
2022/09/19 06:44:39;;;;;;;3.53;0.70;;;;;;;;;;5092649;28;20408;-49
2022/09/19 06:47:09;;;;;;;1.83;0.60;;;;;;;;;;5092878;28;20052;-49
2022/09/19 06:49:39;;;;;;;2.70;0.60;;;;;;;;;;5080333;28;20044;-49
2022/09/19 06:52:06;;;;;;;2.97;0.63;;;;;;;;;;5096453;28;20135;-52
2022/09/19 06:54:34;;;;;;;1.98;0.60;;;;;;;;;;5095285;28;20051;-49
2022/09/19 06:57:02;;;;;;;1.60;0.50;;;;;;;;;;5096134;28;20384;-48
2022/09/19 06:59:32;;;;;;;2.47;0.80;;;;;;;;;;5096246;28;20062;-49
2022/09/19 07:02:02;;;;;;;3.00;0.70;;;;;;;;;;5096295;28;20472;-48
2022/09/19 07:04:44;;;;;;;2.85;0.95;;;;;;;;;;5096322;28;20059;-48
2022/09/19 07:07:15;;;;;;;1.63;0.52;;;;;;;;;;5094611;28;20048;-51
2022/09/19 07:09:41;;;;;;;4.63;0.68;;;;;;;;;;5091885;28;20376;-49
2022/09/19 07:12:12;;;;;;;3.67;0.80;;;;;;;;;;5088877;28;20313;-49
2022/09/19 07:14:41;;;;;;;4.10;0.70;;;;;;;;;;5095891;28;20048;-49
2022/09/19 07:17:15;;;;;;;1.85;0.60;;;;;;;;;;5095281;28;20125;-49
2022/09/19 07:19:53;;;;;;;3.63;0.80;;;;;;;;;;5095642;28;20099;-48
2022/09/19 07:22:22;;;;;;;0.80;0.32;;;;;;;;;;5096208;28;20058;-49
2022/09/19 07:24:49;;;;;;;3.08;0.77;;;;;;;;;;5093779;28;20636;-49
2022/09/19 07:27:19;;;;;;;1.58;0.90;;;;;;;;;;5087892;28;20113;-52
2022/09/19 07:29:49;;;;;;;3.30;1.00;;;;;;;;;;5095245;28;20423;-51
2022/09/19 07:32:19;;;;;;;1.85;0.80;;;;;;;;;;5095651;28;20471;-50
2022/09/19 07:35:00;;;;;;;2.25;0.60;;;;;;;;;;5095620;28;20055;-48
2022/09/19 07:37:29;;;;;;;0.80;0.50;;;;;;;;;;5095722;28;20052;-50
2022/09/19 07:39:56;;;;;;;1.08;0.70;;;;;;;;;;5095432;28;20056;-48
2022/09/19 07:42:26;;;;;;;3.10;0.88;;;;;;;;;;5083174;28;20044;-49
2022/09/19 07:44:54;;;;;;;2.72;0.60;;;;;;;;;;5095982;28;20044;-48
2022/09/19 07:47:29;;;;;;;2.97;0.80;;;;;;;;;;5094785;28;20048;-52
2022/09/19 07:50:02;;;;;;;1.40;0.43;;;;;;;;;;5095606;28;20044;-52
2022/09/19 07:52:29;;;;;;;1.00;0.60;;;;;;;;;;5092444;28;20117;-48
2022/09/19 07:54:56;;;;;;;4.32;0.70;;;;;;;;;;5094397;28;20052;-50
2022/09/19 07:57:25;;;;;;;2.40;0.65;;;;;;;;;;5094794;28;20055;-51
2022/09/19 07:59:53;;;;;;;1.65;0.77;;;;;;;;;;5080552;28;20131;-51
2022/09/19 08:02:20;;;;;;;1.83;0.80;;;;;;;;;;5093330;28;20071;-48
2022/09/19 08:04:49;;;;;;;2.28;0.50;;;;;;;;;;5094518;28;20052;-48
2022/09/19 08:07:17;;;;;;;2.42;0.75;;;;;;;;;;5093720;28;20051;-48
2022/09/19 08:09:47;;;;;;;2.45;0.70;;;;;;;;;;5094083;28;20051;-48
2022/09/19 08:12:17;;;;;;;1.98;0.50;;;;;;;;;;5095503;28;20048;-50
2022/09/19 08:14:47;;;;;;;4.97;0.57;;;;;;;;;;5090362;28;20051;-50
2022/09/19 08:17:14;;;;;;;2.67;0.70;;;;;;;;;;5094476;28;20079;-49
2022/09/19 08:19:42;;;;;;;1.67;0.80;;;;;;;;;;5094883;28;20059;-50
2022/09/19 08:22:09;;;;;;;6.55;0.60;;;;;;;;;;5094828;28;20063;-50
2022/09/19 08:27:19;;;;;;;5.47;0.60;;;;;;;;;;5093115;28;20051;-50
2022/09/19 08:29:49;;;;;;;1.50;0.60;;;;;;;;;;5086144;28;20048;-49
2022/09/19 08:32:21;;;;;;;1.77;0.60;;;;;;;;;;5082661;28;20063;-49
2022/09/19 08:34:48;;;;;;;3.67;0.52;;;;;;;;;;5094338;28;20059;-49
2022/09/19 08:37:19;;;;;;;2.40;0.60;;;;;;;;;;5094054;28;20513;-49
2022/09/19 08:42:37;;;;;;;1.40;0.38;;;;;;;;;;5089865;28;20046;-49
2022/09/19 08:45:06;;;;;;;5.40;0.70;;;;;;;;;;5094445;28;20048;-49
2022/09/19 08:47:44;;;;;;;3.03;0.68;;;;;;;;;;5091150;28;20051;-50
2022/09/19 08:50:14;;;;;;;1.35;0.65;;;;;;;;;;5088363;28;20136;-50
2022/09/19 08:52:47;;;;;;;2.63;0.50;;;;;;;;;;5092298;28;20130;-50
2022/09/19 08:55:23;;;;;;;1.65;0.95;;;;;;;;;;5093982;28;20056;-49
2022/09/19 08:57:53;;;;;;;1.30;0.50;;;;;;;;;;5093879;28;20056;-51
2022/09/19 09:00:21;;;;;;;0.70;0.30;;;;;;;;;;5092847;28;20052;-51
2022/09/19 09:03:00;;;;;;;1.95;0.40;;;;;;;;;;5093962;28;20051;-49
2022/09/19 09:05:34;;;;;;;1.27;0.43;;;;;;;;;;5084825;28;20040;-50
2022/09/19 09:08:09;;;;;;;1.98;0.45;;;;;;;;;;5091895;28;20080;-50
2022/09/19 09:10:45;;;;;;;2.33;0.32;;;;;;;;;;5093922;28;20036;-51
2022/09/19 09:13:21;;;;;;;0.95;0.40;;;;;;;;;;5093975;28;20062;-49
2022/09/19 09:16:06;;;;;;;0.65;0.30;;;;;;;;;;5093714;28;20090;-49
2022/09/19 09:18:42;;;;;;;2.10;0.68;;;;;;;;;;5090866;28;20593;-51
2022/09/19 09:21:18;;;;;;;2.15;0.50;;;;;;;;;;5088910;28;20052;-49
2022/09/19 09:23:49;;;;;;;2.50;0.40;;;;;;;;;;5089225;28;20097;-53
2022/09/19 09:26:26;;;;;;;1.10;0.40;;;;;;;;;;5088617;28;20047;-51
2022/09/19 09:28:57;;;;;;;3.05;0.38;;;;;;;;;;5087016;28;20044;-50
2022/09/19 09:31:29;;;;;;;1.88;0.45;;;;;;;;;;5087528;28;20044;-53
2022/09/19 09:33:58;;;;;;;2.65;0.50;;;;;;;;;;5089889;28;20081;-53
2022/09/19 09:36:31;;;;;;;1.48;0.40;;;;;;;;;;5090135;28;20039;-50
2022/09/19 09:39:11;;;;;;;2.83;0.20;;;;;;;;;;5092507;28;20423;-53
2022/09/19 09:41:55;;;;;;;1.05;0.35;;;;;;;;;;5088143;28;20044;-50
2022/09/19 09:44:30;;;;;;;0.47;0.20;;;;;;;;;;5089597;28;20056;-49
2022/09/19 09:47:02;;;;;;;1.40;0.30;;;;;;;;;;5089902;28;20508;-51
2022/09/19 09:49:30;;;;;;;4.43;0.40;;;;;;;;;;5091020;28;20132;-49
2022/09/19 09:52:17;;;;;;;1.30;0.20;;;;;;;;;;5088380;28;20058;-49
2022/09/19 09:57:47;;;;;;;4.05;0.30;;;;;;;;;;5086445;28;20109;-50
2022/09/19 10:05:50;;;;;;;4.03;0.35;;;;;;;;;;5091954;28;20098;-52
2022/09/19 10:08:28;;;;;;;2.05;0.55;;;;;;;;;;5089981;28;20046;-49
2022/09/19 10:11:02;;;;;;;0.73;0.30;;;;;;;;;;5092381;28;20044;-51
2022/09/19 10:13:39;;;;;;;4.55;0.50;;;;;;;;;;5092588;28;20051;-50
2022/09/19 10:16:07;;;;;;;3.67;0.70;;;;;;;;;;5092812;28;20054;-52
2022/09/19 10:18:41;;;;;;;1.33;0.40;;;;;;;;;;5092480;28;20050;-49
2022/09/19 10:21:11;;;;;;;0.63;0.30;;;;;;;;;;5090463;28;20127;-49
2022/09/19 10:23:39;;;;;;;1.02;0.20;;;;;;;;;;5090849;28;20709;-49
2022/09/19 10:26:15;;;;;;;1.40;0.30;;;;;;;;;;5092768;28;20048;-49
2022/09/19 10:28:51;;;;;;;2.38;0.40;;;;;;;;;;5085830;28;20112;-49
2022/09/19 10:31:29;;;;;;;0.95;0.20;;;;;;;;;;5086802;28;20039;-49
2022/09/19 10:33:59;;;;;;;1.40;0.43;;;;;;;;;;5092340;28;20059;-49
2022/09/19 10:36:31;;;;;;;4.15;0.47;;;;;;;;;;5092615;28;20054;-50
2022/09/19 10:39:00;;;;;;;0.82;0.30;;;;;;;;;;5088583;28;20098;-49
2022/09/19 10:41:33;;;;;;;1.65;0.35;;;;;;;;;;5089546;28;20059;-50
2022/09/19 10:44:06;;;;;;;0.20;0.20;;;;;;;;;;5092164;28;20068;-49
2022/09/19 10:46:37;;;;;;;1.08;0.30;;;;;;;;;;5092139;28;20048;-49
2022/09/19 10:49:07;;;;;;;1.98;0.35;;;;;;;;;;5092307;28;20047;-50
2022/09/19 10:51:38;;;;;;;0.32;0.20;;;;;;;;;;5084696;28;20358;-51
2022/09/19 10:54:11;;;;;;;0.55;0.30;;;;;;;;;;5074931;28;20060;-52
2022/09/19 10:56:48;;;;;;;0.50;0.20;;;;;;;;;;5092416;28;20127;-48
2022/09/19 10:59:36;;;;;;;0.73;0.20;;;;;;;;;;5091484;28;20044;-49
2022/09/19 11:02:36;;;;;;;0.25;0.15;;;;;;;;;;5087718;28;20127;-48
2022/09/19 11:05:09;;;;;;;0.22;0.10;;;;;;;;;;5079596;28;20061;-49
2022/09/19 11:07:47;;;;;;;1.05;0.20;;;;;;;;;;5089912;28;20365;-49
2022/09/19 11:10:32;;;;;;;1.35;0.20;;;;;;;;;;5079917;28;20105;-49
2022/09/19 11:13:06;;;;;;;0.97;0.27;;;;;;;;;;5092600;28;20052;-49
2022/09/19 11:15:36;;;;;;;1.60;0.30;;;;;;;;;;5092060;28;20056;-49
2022/09/19 11:18:16;;;;;;;1.75;0.20;;;;;;;;;;5089840;28;20060;-50
2022/09/19 11:20:49;;;;;;;2.88;0.30;;;;;;;;;;5092503;28;20040;-49
2022/09/19 11:23:27;;;;;;;0.20;0.20;;;;;;;;;;5092170;28;20147;-49
2022/09/19 11:26:03;;;;;;;0.40;0.20;;;;;;;;;;5092219;28;20056;-49
2022/09/19 11:28:43;;;;;;;0.47;0.20;;;;;;;;;;5091803;28;20155;-50
2022/09/19 11:31:17;;;;;;;0.60;0.20;;;;;;;;;;5091707;28;20044;-49
2022/09/19 11:33:53;;;;;;;1.42;0.30;;;;;;;;;;5077875;28;20054;-50
2022/09/19 11:36:29;;;;;;;1.10;0.30;;;;;;;;;;5093530;28;20052;-49
2022/09/19 11:39:07;;;;;;;0.55;0.25;;;;;;;;;;5093820;28;20383;-49
2022/09/19 11:41:47;;;;;;;1.73;0.45;;;;;;;;;;5080757;28;20080;-49
2022/09/19 11:44:27;;;;;;;0.60;0.20;;;;;;;;;;5078678;28;20048;-51
2022/09/19 11:47:00;;;;;;;0.50;0.30;;;;;;;;;;5095495;28;20127;-53
2022/09/19 11:49:59;;;;;;;1.63;0.30;;;;;;;;;;5095762;28;20044;-51
2022/09/19 11:52:30;;;;;;;2.30;0.40;;;;;;;;;;5083880;28;20072;-51
2022/09/19 11:55:05;;;;;;;3.72;0.68;;;;;;;;;;5095552;28;20433;-50
2022/09/19 11:57:39;;;;;;;2.50;0.50;;;;;;;;;;5093727;28;20044;-50
2022/09/19 12:00:21;;;;;;;0.80;0.25;;;;;;;;;;5083383;28;20675;-49
2022/09/19 12:02:59;;;;;;;0.80;0.22;;;;;;;;;;5090576;28;20044;-51
2022/09/19 12:05:43;;;;;;;1.95;0.40;;;;;;;;;;5088616;28;20167;-52
2022/09/19 12:08:19;;;;;;;1.23;0.30;;;;;;;;;;5091819;28;20476;-50
2022/09/19 12:10:49;;;;;;;1.48;0.68;;;;;;;;;;5094633;28;20046;-53
2022/09/19 12:13:27;;;;;;;5.32;0.60;;;;;;;;;;5094943;28;20471;-54
2022/09/19 12:15:58;;;;;;;1.95;0.63;;;;;;;;;;5094365;28;20468;-53
2022/09/19 12:18:28;;;;;;;0.98;0.50;;;;;;;;;;5093965;28;20052;-49
2022/09/19 12:21:01;;;;;;;1.05;0.40;;;;;;;;;;5095451;28;20135;-53
2022/09/19 12:26:21;;;;;;;1.35;0.40;;;;;;;;;;5094456;28;20486;-51
2022/09/19 12:28:52;;;;;;;5.20;0.55;;;;;;;;;;5093809;28;20071;-52
2022/09/19 12:31:24;;;;;;;1.00;0.43;;;;;;;;;;5094748;28;20055;-53
2022/09/19 12:33:55;;;;;;;6.78;0.60;;;;;;;;;;5076414;28;20052;-49
2022/09/19 12:36:29;;;;;;;0.50;0.30;;;;;;;;;;5084336;28;20060;-51
2022/09/19 12:39:03;;;;;;;2.08;0.30;;;;;;;;;;5082071;28;20048;-53
2022/09/19 12:41:40;;;;;;;0.90;0.30;;;;;;;;;;5091568;28;20047;-50
2022/09/19 12:44:12;;;;;;;1.63;0.50;;;;;;;;;;5082833;28;20052;-49
2022/09/19 12:46:45;;;;;;;1.30;0.40;;;;;;;;;;5094777;28;20055;-53
2022/09/19 12:49:18;;;;;;;1.35;0.68;;;;;;;;;;5094126;28;20048;-52
2022/09/19 12:51:51;;;;;;;1.63;0.40;;;;;;;;;;5085648;28;20044;-50
2022/09/19 12:54:28;;;;;;;0.47;0.30;;;;;;;;;;5093032;28;20044;-52
2022/09/19 12:57:05;;;;;;;2.50;0.85;;;;;;;;;;5084163;28;20063;-48
2022/09/19 12:59:41;;;;;;;0.82;0.40;;;;;;;;;;5087697;28;20048;-49
2022/09/19 13:02:19;;;;;;;1.45;0.50;;;;;;;;;;5094194;28;20468;-49
2022/09/19 13:04:49;;;;;;;1.75;0.38;;;;;;;;;;5094104;28;20129;-49
2022/09/19 13:07:31;;;;;;;1.08;0.40;;;;;;;;;;5092254;28;20799;-52
2022/09/19 13:10:07;;;;;;;1.38;0.45;;;;;;;;;;5093656;28;20052;-51
2022/09/19 13:12:39;;;;;;;1.27;0.47;;;;;;;;;;5094335;28;20054;-50
2022/09/19 13:15:13;;;;;;;1.00;0.50;;;;;;;;;;5093542;28;20498;-53
2022/09/19 13:23:39;;;;;;;0.82;0.30;;;;;;;;;;5092815;28;20074;-50
2022/09/19 13:26:36;;;;;;;1.75;0.40;;;;;;;;;;5091298;28;20052;-50
2022/09/19 13:29:08;;;;;;;1.35;0.40;;;;;;;;;;5048216;28;20058;-50
2022/09/19 13:31:56;;;;;;;0.45;0.20;;;;;;;;;;5093076;28;20047;-50
2022/09/19 13:34:41;;;;;;;2.28;0.40;;;;;;;;;;5093628;28;20152;-50
2022/09/19 13:37:28;;;;;;;1.42;0.40;;;;;;;;;;5090027;28;20117;-53
2022/09/19 13:40:21;;;;;;;1.10;0.40;;;;;;;;;;5083131;28;20048;-51
2022/09/19 13:42:51;;;;;;;0.63;0.30;;;;;;;;;;5083273;28;20105;-49
2022/09/19 13:45:24;;;;;;;1.88;0.40;;;;;;;;;;5088682;28;20055;-49
2022/09/19 13:47:54;;;;;;;1.65;0.50;;;;;;;;;;5092558;28;20064;-49
2022/09/19 13:50:31;;;;;;;0.95;0.30;;;;;;;;;;5089925;28;20075;-49
2022/09/19 13:53:02;;;;;;;1.80;0.50;;;;;;;;;;5085180;28;20062;-49
2022/09/19 13:55:36;;;;;;;0.70;0.30;;;;;;;;;;5086800;28;20440;-50
2022/09/19 13:58:28;;;;;;;0.70;0.20;;;;;;;;;;5092816;28;20052;-50
2022/09/19 14:01:07;;;;;;;1.05;0.38;;;;;;;;;;5092765;28;20105;-50
2022/09/19 14:03:36;;;;;;;4.20;0.35;;;;;;;;;;5092264;28;20052;-49
2022/09/19 14:06:29;;;;;;;0.95;0.30;;;;;;;;;;5088906;28;20121;-50
2022/09/19 14:09:17;;;;;;;1.85;0.20;;;;;;;;;;5092827;28;20047;-49
2022/09/19 14:11:54;;;;;;;3.83;0.32;;;;;;;;;;5083443;28;20431;-49
2022/09/19 14:14:47;;;;;;;1.77;0.47;;;;;;;;;;5092297;28;20046;-49
2022/09/19 14:17:30;;;;;;;0.63;0.20;;;;;;;;;;5092474;28;20102;-49
2022/09/19 14:20:12;;;;;;;1.63;0.60;;;;;;;;;;5092979;28;20089;-50
2022/09/19 14:22:44;;;;;;;5.30;0.50;;;;;;;;;;5093105;28;20040;-49
2022/09/19 14:25:18;;;;;;;1.27;0.20;;;;;;;;;;5091968;28;20048;-50
2022/09/19 14:28:04;;;;;;;1.58;0.40;;;;;;;;;;5092508;28;20135;-50
2022/09/19 14:30:41;;;;;;;0.82;0.30;;;;;;;;;;5080434;28;20052;-52
2022/09/19 14:33:33;;;;;;;0.70;0.40;;;;;;;;;;5089722;28;20364;-51
2022/09/19 14:36:06;;;;;;;1.65;0.40;;;;;;;;;;5083560;28;20131;-53
2022/09/19 14:38:55;;;;;;;2.60;0.57;;;;;;;;;;5091738;28;20060;-50
2022/09/19 14:41:40;;;;;;;0.63;0.30;;;;;;;;;;5085266;28;20062;-50
2022/09/19 14:44:36;;;;;;;1.05;0.40;;;;;;;;;;5092566;28;20113;-52
2022/09/19 14:47:08;;;;;;;1.15;0.35;;;;;;;;;;5082341;28;20056;-50
2022/09/19 14:49:52;;;;;;;1.60;0.40;;;;;;;;;;5091788;28;20141;-51
2022/09/19 14:52:29;;;;;;;1.88;0.50;;;;;;;;;;5091930;28;20135;-51
2022/09/19 14:55:09;;;;;;;1.08;0.40;;;;;;;;;;5092232;28;20692;-52
2022/09/19 14:57:50;;;;;;;1.85;0.30;;;;;;;;;;5092107;28;20052;-50
2022/09/19 15:00:37;;;;;;;2.03;0.50;;;;;;;;;;5092238;28;20548;-53
2022/09/19 15:03:13;;;;;;;0.77;0.40;;;;;;;;;;5091996;28;20357;-50
2022/09/19 15:05:42;;;;;;;0.60;0.30;;;;;;;;;;5090189;28;20052;-53
2022/09/19 15:08:23;;;;;;;1.67;0.22;;;;;;;;;;5092149;28;20185;-51
2022/09/19 15:11:00;;;;;;;0.88;0.47;;;;;;;;;;5093978;28;20605;-53
2022/09/19 15:13:30;;;;;;;1.15;0.30;;;;;;;;;;5095476;28;20468;-53
2022/09/19 15:16:06;;;;;;;1.48;0.35;;;;;;;;;;5096151;28;20476;-51
2022/09/19 15:18:38;;;;;;;1.55;0.35;;;;;;;;;;5095160;28;20052;-51
2022/09/19 15:21:07;;;;;;;0.73;0.30;;;;;;;;;;5095015;28;20087;-49
2022/09/19 15:23:39;;;;;;;0.40;0.30;;;;;;;;;;5095693;28;20056;-51
2022/09/19 15:26:09;;;;;;;0.88;0.20;;;;;;;;;;5096282;28;20063;-51
2022/09/19 15:28:38;;;;;;;1.50;0.20;;;;;;;;;;5096233;28;20040;-52
2022/09/19 15:31:21;;;;;;;2.35;0.40;;;;;;;;;;5095969;28;20059;-53
2022/09/19 15:33:53;;;;;;;0.73;0.30;;;;;;;;;;5096063;28;20119;-50
2022/09/19 15:36:22;;;;;;;1.00;0.30;;;;;;;;;;5095816;28;20044;-53
2022/09/19 15:38:53;;;;;;;1.27;0.35;;;;;;;;;;5093468;28;20044;-50
2022/09/19 15:41:19;;;;;;;1.50;0.30;;;;;;;;;;5094355;28;20044;-49
2022/09/19 15:43:49;;;;;;;1.90;0.40;;;;;;;;;;5095423;28;20059;-49
2022/09/19 15:46:36;;;;;;;1.08;0.40;;;;;;;;;;5082353;28;20056;-49